sensor_id;sensor_type;location;lat;lon;timestamp;P1;durP1;ratioP1;P2;durP2;ratioP2
50745;SDS011;36711;51.972;21.204;2022-09-27T00:00:27;23.10;;;13.80;;
50745;SDS011;36711;51.972;21.204;2022-09-27T00:03:14;24.60;;;14.20;;
50745;SDS011;36711;51.972;21.204;2022-09-27T00:05:42;24.20;;;14.40;;
50745;SDS011;36711;51.972;21.204;2022-09-27T00:08:09;23.50;;;15.50;;
50745;SDS011;36711;51.972;21.204;2022-09-27T00:10:37;23.70;;;15.50;;
50745;SDS011;36711;51.972;21.204;2022-09-27T00:13:04;23.70;;;16.00;;
50745;SDS011;36711;51.972;21.204;2022-09-27T00:15:32;32.00;;;15.70;;
50745;SDS011;36711;51.972;21.204;2022-09-27T00:18:00;27.60;;;15.70;;
50745;SDS011;36711;51.972;21.204;2022-09-27T00:20:27;21.10;;;14.30;;
50745;SDS011;36711;51.972;21.204;2022-09-27T00:22:55;27.10;;;15.90;;
50745;SDS011;36711;51.972;21.204;2022-09-27T00:25:22;27.60;;;15.60;;
50745;SDS011;36711;51.972;21.204;2022-09-27T00:27:50;22.50;;;15.60;;
50745;SDS011;36711;51.972;21.204;2022-09-27T00:30:18;22.80;;;15.80;;
50745;SDS011;36711;51.972;21.204;2022-09-27T00:32:46;25.20;;;14.90;;
50745;SDS011;36711;51.972;21.204;2022-09-27T00:35:13;22.80;;;15.20;;
50745;SDS011;36711;51.972;21.204;2022-09-27T00:37:42;25.80;;;16.10;;
50745;SDS011;36711;51.972;21.204;2022-09-27T00:40:10;24.30;;;16.00;;
50745;SDS011;36711;51.972;21.204;2022-09-27T00:42:41;24.30;;;15.60;;
50745;SDS011;36711;51.972;21.204;2022-09-27T00:45:12;25.60;;;16.40;;
50745;SDS011;36711;51.972;21.204;2022-09-27T00:47:46;23.20;;;14.70;;
50745;SDS011;36711;51.972;21.204;2022-09-27T00:55:29;25.60;;;16.30;;
50745;SDS011;36711;51.972;21.204;2022-09-27T00:58:00;24.60;;;15.60;;
50745;SDS011;36711;51.972;21.204;2022-09-27T01:00:27;24.30;;;15.90;;
50745;SDS011;36711;51.972;21.204;2022-09-27T01:02:55;25.80;;;15.50;;
50745;SDS011;36711;51.972;21.204;2022-09-27T01:05:25;24.60;;;15.10;;
50745;SDS011;36711;51.972;21.204;2022-09-27T01:07:53;27.00;;;16.90;;
50745;SDS011;36711;51.972;21.204;2022-09-27T01:10:27;26.20;;;15.80;;
50745;SDS011;36711;51.972;21.204;2022-09-27T01:18:48;28.20;;;16.00;;
50745;SDS011;36711;51.972;21.204;2022-09-27T01:26:26;27.80;;;17.00;;
50745;SDS011;36711;51.972;21.204;2022-09-27T01:29:01;25.40;;;15.90;;
50745;SDS011;36711;51.972;21.204;2022-09-27T01:31:42;27.90;;;16.00;;
50745;SDS011;36711;51.972;21.204;2022-09-27T01:39:37;28.60;;;16.80;;
50745;SDS011;36711;51.972;21.204;2022-09-27T01:42:13;31.50;;;17.00;;
50745;SDS011;36711;51.972;21.204;2022-09-27T01:44:57;24.80;;;16.50;;
50745;SDS011;36711;51.972;21.204;2022-09-27T01:47:32;28.80;;;16.90;;
50745;SDS011;36711;51.972;21.204;2022-09-27T01:50:03;22.50;;;15.00;;
50745;SDS011;36711;51.972;21.204;2022-09-27T01:52:35;26.20;;;15.50;;
50745;SDS011;36711;51.972;21.204;2022-09-27T01:55:05;23.80;;;15.80;;
50745;SDS011;36711;51.972;21.204;2022-09-27T01:57:36;23.40;;;15.20;;
50745;SDS011;36711;51.972;21.204;2022-09-27T02:00:06;24.60;;;15.40;;
50745;SDS011;36711;51.972;21.204;2022-09-27T02:02:35;25.80;;;16.00;;
50745;SDS011;36711;51.972;21.204;2022-09-27T02:05:06;26.70;;;16.00;;
50745;SDS011;36711;51.972;21.204;2022-09-27T02:07:42;27.70;;;15.50;;
50745;SDS011;36711;51.972;21.204;2022-09-27T02:10:12;26.60;;;17.60;;
50745;SDS011;36711;51.972;21.204;2022-09-27T02:12:45;28.30;;;16.90;;
50745;SDS011;36711;51.972;21.204;2022-09-27T02:15:15;27.30;;;15.80;;
50745;SDS011;36711;51.972;21.204;2022-09-27T02:17:46;21.90;;;14.50;;
50745;SDS011;36711;51.972;21.204;2022-09-27T02:25:57;27.20;;;15.60;;
50745;SDS011;36711;51.972;21.204;2022-09-27T02:30:59;24.50;;;15.50;;
50745;SDS011;36711;51.972;21.204;2022-09-27T02:33:32;26.80;;;15.30;;
50745;SDS011;36711;51.972;21.204;2022-09-27T02:36:01;28.60;;;17.00;;
50745;SDS011;36711;51.972;21.204;2022-09-27T02:38:29;27.20;;;16.30;;
50745;SDS011;36711;51.972;21.204;2022-09-27T02:40:57;29.60;;;17.00;;
50745;SDS011;36711;51.972;21.204;2022-09-27T02:43:26;29.60;;;18.20;;
50745;SDS011;36711;51.972;21.204;2022-09-27T02:48:39;24.90;;;15.80;;
50745;SDS011;36711;51.972;21.204;2022-09-27T02:58:59;30.00;;;16.70;;
50745;SDS011;36711;51.972;21.204;2022-09-27T03:06:47;25.40;;;15.90;;
50745;SDS011;36711;51.972;21.204;2022-09-27T03:09:19;31.40;;;17.40;;
50745;SDS011;36711;51.972;21.204;2022-09-27T03:11:47;28.80;;;15.80;;
50745;SDS011;36711;51.972;21.204;2022-09-27T03:14:15;26.70;;;15.70;;
50745;SDS011;36711;51.972;21.204;2022-09-27T03:16:43;31.20;;;16.50;;
50745;SDS011;36711;51.972;21.204;2022-09-27T03:19:10;26.40;;;15.60;;
50745;SDS011;36711;51.972;21.204;2022-09-27T03:21:38;23.90;;;15.10;;
50745;SDS011;36711;51.972;21.204;2022-09-27T03:24:06;26.90;;;15.50;;
50745;SDS011;36711;51.972;21.204;2022-09-27T03:26:33;27.80;;;15.70;;
50745;SDS011;36711;51.972;21.204;2022-09-27T03:29:01;26.20;;;15.50;;
50745;SDS011;36711;51.972;21.204;2022-09-27T03:31:28;24.60;;;14.80;;
50745;SDS011;36711;51.972;21.204;2022-09-27T03:33:57;24.90;;;15.10;;
50745;SDS011;36711;51.972;21.204;2022-09-27T03:36:24;28.50;;;15.10;;
50745;SDS011;36711;51.972;21.204;2022-09-27T03:38:52;25.80;;;15.80;;
50745;SDS011;36711;51.972;21.204;2022-09-27T03:41:19;26.20;;;15.40;;
50745;SDS011;36711;51.972;21.204;2022-09-27T03:43:47;21.20;;;12.90;;
50745;SDS011;36711;51.972;21.204;2022-09-27T03:46:15;26.40;;;14.30;;
50745;SDS011;36711;51.972;21.204;2022-09-27T03:48:42;24.10;;;14.00;;
50745;SDS011;36711;51.972;21.204;2022-09-27T03:51:10;22.60;;;13.70;;
50745;SDS011;36711;51.972;21.204;2022-09-27T03:53:38;26.40;;;15.50;;
50745;SDS011;36711;51.972;21.204;2022-09-27T03:56:06;26.90;;;15.30;;
50745;SDS011;36711;51.972;21.204;2022-09-27T03:58:34;22.70;;;13.00;;
50745;SDS011;36711;51.972;21.204;2022-09-27T04:01:02;25.80;;;14.10;;
50745;SDS011;36711;51.972;21.204;2022-09-27T04:03:29;22.40;;;13.10;;
50745;SDS011;36711;51.972;21.204;2022-09-27T04:05:57;23.70;;;13.30;;
50745;SDS011;36711;51.972;21.204;2022-09-27T04:08:27;24.20;;;13.40;;
50745;SDS011;36711;51.972;21.204;2022-09-27T04:10:55;23.20;;;12.80;;
50745;SDS011;36711;51.972;21.204;2022-09-27T04:13:22;21.60;;;12.00;;
50745;SDS011;36711;51.972;21.204;2022-09-27T04:15:50;22.70;;;12.70;;
50745;SDS011;36711;51.972;21.204;2022-09-27T04:18:18;20.80;;;11.60;;
50745;SDS011;36711;51.972;21.204;2022-09-27T04:20:46;21.40;;;11.60;;
50745;SDS011;36711;51.972;21.204;2022-09-27T04:23:13;24.70;;;12.40;;
50745;SDS011;36711;51.972;21.204;2022-09-27T04:25:41;22.90;;;12.30;;
50745;SDS011;36711;51.972;21.204;2022-09-27T04:28:09;19.10;;;11.20;;
50745;SDS011;36711;51.972;21.204;2022-09-27T04:30:36;21.10;;;12.00;;
50745;SDS011;36711;51.972;21.204;2022-09-27T04:33:04;20.90;;;11.40;;
50745;SDS011;36711;51.972;21.204;2022-09-27T04:35:32;19.00;;;10.80;;
50745;SDS011;36711;51.972;21.204;2022-09-27T04:38:19;19.50;;;10.40;;
50745;SDS011;36711;51.972;21.204;2022-09-27T04:40:50;22.30;;;11.30;;
50745;SDS011;36711;51.972;21.204;2022-09-27T04:43:18;19.00;;;10.80;;
50745;SDS011;36711;51.972;21.204;2022-09-27T04:45:46;20.50;;;10.60;;
50745;SDS011;36711;51.972;21.204;2022-09-27T04:48:13;19.50;;;11.20;;
50745;SDS011;36711;51.972;21.204;2022-09-27T04:50:41;20.50;;;11.30;;
50745;SDS011;36711;51.972;21.204;2022-09-27T04:53:12;20.90;;;11.20;;
50745;SDS011;36711;51.972;21.204;2022-09-27T04:55:44;21.30;;;11.90;;
50745;SDS011;36711;51.972;21.204;2022-09-27T04:58:12;23.50;;;11.30;;
50745;SDS011;36711;51.972;21.204;2022-09-27T05:00:39;23.50;;;11.80;;
50745;SDS011;36711;51.972;21.204;2022-09-27T05:03:09;22.40;;;12.00;;
50745;SDS011;36711;51.972;21.204;2022-09-27T05:05:37;18.70;;;11.00;;
50745;SDS011;36711;51.972;21.204;2022-09-27T05:08:05;21.30;;;11.30;;
50745;SDS011;36711;51.972;21.204;2022-09-27T05:10:33;21.50;;;11.20;;
50745;SDS011;36711;51.972;21.204;2022-09-27T05:13:00;23.40;;;11.50;;
50745;SDS011;36711;51.972;21.204;2022-09-27T05:15:28;25.00;;;11.10;;
50745;SDS011;36711;51.972;21.204;2022-09-27T05:17:56;22.30;;;11.90;;
50745;SDS011;36711;51.972;21.204;2022-09-27T05:20:25;19.10;;;10.90;;
50745;SDS011;36711;51.972;21.204;2022-09-27T05:22:52;19.60;;;11.10;;
50745;SDS011;36711;51.972;21.204;2022-09-27T05:25:20;21.00;;;11.10;;
50745;SDS011;36711;51.972;21.204;2022-09-27T05:27:48;22.00;;;11.00;;
50745;SDS011;36711;51.972;21.204;2022-09-27T05:30:15;20.20;;;9.90;;
50745;SDS011;36711;51.972;21.204;2022-09-27T05:32:43;20.80;;;11.00;;
50745;SDS011;36711;51.972;21.204;2022-09-27T05:35:12;17.10;;;10.30;;
50745;SDS011;36711;51.972;21.204;2022-09-27T05:37:40;19.40;;;10.30;;
50745;SDS011;36711;51.972;21.204;2022-09-27T05:40:08;20.30;;;11.20;;
50745;SDS011;36711;51.972;21.204;2022-09-27T05:42:56;20.10;;;10.60;;
50745;SDS011;36711;51.972;21.204;2022-09-27T05:45:23;17.40;;;9.90;;
50745;SDS011;36711;51.972;21.204;2022-09-27T05:47:57;16.50;;;9.70;;
50745;SDS011;36711;51.972;21.204;2022-09-27T05:50:25;15.90;;;8.80;;
50745;SDS011;36711;51.972;21.204;2022-09-27T05:52:53;16.30;;;8.70;;
50745;SDS011;36711;51.972;21.204;2022-09-27T05:55:21;18.30;;;9.50;;
50745;SDS011;36711;51.972;21.204;2022-09-27T05:57:55;16.50;;;8.60;;
50745;SDS011;36711;51.972;21.204;2022-09-27T06:00:24;18.20;;;9.40;;
50745;SDS011;36711;51.972;21.204;2022-09-27T06:02:59;17.60;;;9.00;;
50745;SDS011;36711;51.972;21.204;2022-09-27T06:05:28;17.40;;;8.80;;
50745;SDS011;36711;51.972;21.204;2022-09-27T06:08:00;20.50;;;9.00;;
50745;SDS011;36711;51.972;21.204;2022-09-27T06:10:28;19.50;;;9.50;;
50745;SDS011;36711;51.972;21.204;2022-09-27T06:13:04;17.10;;;9.00;;
50745;SDS011;36711;51.972;21.204;2022-09-27T06:15:32;19.50;;;8.90;;
50745;SDS011;36711;51.972;21.204;2022-09-27T06:18:04;18.50;;;8.50;;
50745;SDS011;36711;51.972;21.204;2022-09-27T06:20:32;19.30;;;9.10;;
50745;SDS011;36711;51.972;21.204;2022-09-27T06:23:06;18.60;;;9.10;;
50745;SDS011;36711;51.972;21.204;2022-09-27T06:25:35;19.20;;;9.40;;
50745;SDS011;36711;51.972;21.204;2022-09-27T06:28:03;19.50;;;8.70;;
50745;SDS011;36711;51.972;21.204;2022-09-27T06:30:31;20.30;;;9.30;;
50745;SDS011;36711;51.972;21.204;2022-09-27T06:32:59;17.00;;;8.30;;
50745;SDS011;36711;51.972;21.204;2022-09-27T06:35:28;17.90;;;8.80;;
50745;SDS011;36711;51.972;21.204;2022-09-27T06:37:55;18.00;;;9.00;;
50745;SDS011;36711;51.972;21.204;2022-09-27T06:40:23;18.80;;;9.30;;
50745;SDS011;36711;51.972;21.204;2022-09-27T06:42:53;17.30;;;9.50;;
50745;SDS011;36711;51.972;21.204;2022-09-27T06:45:20;16.60;;;8.90;;
50745;SDS011;36711;51.972;21.204;2022-09-27T06:47:48;15.50;;;8.30;;
50745;SDS011;36711;51.972;21.204;2022-09-27T06:50:15;17.40;;;8.50;;
50745;SDS011;36711;51.972;21.204;2022-09-27T06:52:49;16.10;;;8.50;;
50745;SDS011;36711;51.972;21.204;2022-09-27T06:55:16;16.40;;;8.40;;
50745;SDS011;36711;51.972;21.204;2022-09-27T06:57:44;15.70;;;8.80;;
50745;SDS011;36711;51.972;21.204;2022-09-27T07:00:30;15.90;;;8.80;;
50745;SDS011;36711;51.972;21.204;2022-09-27T07:02:58;17.20;;;8.80;;
50745;SDS011;36711;51.972;21.204;2022-09-27T07:05:28;15.90;;;9.00;;
50745;SDS011;36711;51.972;21.204;2022-09-27T07:07:56;18.80;;;9.40;;
50745;SDS011;36711;51.972;21.204;2022-09-27T07:10:25;16.40;;;9.60;;
50745;SDS011;36711;51.972;21.204;2022-09-27T07:12:53;17.80;;;9.90;;
50745;SDS011;36711;51.972;21.204;2022-09-27T07:15:21;20.10;;;10.20;;
50745;SDS011;36711;51.972;21.204;2022-09-27T07:17:55;19.00;;;10.10;;
50745;SDS011;36711;51.972;21.204;2022-09-27T07:20:26;22.30;;;10.50;;
50745;SDS011;36711;51.972;21.204;2022-09-27T07:22:55;16.90;;;9.20;;
50745;SDS011;36711;51.972;21.204;2022-09-27T07:25:24;18.70;;;9.90;;
50745;SDS011;36711;51.972;21.204;2022-09-27T07:27:51;19.20;;;10.20;;
50745;SDS011;36711;51.972;21.204;2022-09-27T07:30:19;19.70;;;9.80;;
50745;SDS011;36711;51.972;21.204;2022-09-27T07:32:47;19.40;;;9.40;;
50745;SDS011;36711;51.972;21.204;2022-09-27T07:35:15;15.10;;;8.40;;
50745;SDS011;36711;51.972;21.204;2022-09-27T07:37:42;17.60;;;8.90;;
50745;SDS011;36711;51.972;21.204;2022-09-27T07:40:11;16.60;;;9.30;;
50745;SDS011;36711;51.972;21.204;2022-09-27T07:42:39;17.70;;;9.60;;
50745;SDS011;36711;51.972;21.204;2022-09-27T07:45:10;19.60;;;9.50;;
50745;SDS011;36711;51.972;21.204;2022-09-27T07:47:38;17.60;;;9.50;;
50745;SDS011;36711;51.972;21.204;2022-09-27T07:50:07;17.40;;;9.70;;
50745;SDS011;36711;51.972;21.204;2022-09-27T07:52:39;18.60;;;9.70;;
50745;SDS011;36711;51.972;21.204;2022-09-27T07:55:08;21.60;;;10.10;;
50745;SDS011;36711;51.972;21.204;2022-09-27T07:57:37;19.50;;;10.80;;
50745;SDS011;36711;51.972;21.204;2022-09-27T08:00:06;16.50;;;9.60;;
50745;SDS011;36711;51.972;21.204;2022-09-27T08:02:34;18.10;;;10.00;;
50745;SDS011;36711;51.972;21.204;2022-09-27T08:05:02;16.10;;;9.20;;
50745;SDS011;36711;51.972;21.204;2022-09-27T08:07:30;19.30;;;10.40;;
50745;SDS011;36711;51.972;21.204;2022-09-27T08:09:59;18.90;;;10.30;;
50745;SDS011;36711;51.972;21.204;2022-09-27T08:12:27;21.50;;;11.20;;
50745;SDS011;36711;51.972;21.204;2022-09-27T08:14:54;18.60;;;10.60;;
50745;SDS011;36711;51.972;21.204;2022-09-27T08:17:24;18.50;;;10.20;;
50745;SDS011;36711;51.972;21.204;2022-09-27T08:19:52;21.10;;;10.50;;
50745;SDS011;36711;51.972;21.204;2022-09-27T08:22:21;21.70;;;10.00;;
50745;SDS011;36711;51.972;21.204;2022-09-27T08:24:48;21.10;;;10.90;;
50745;SDS011;36711;51.972;21.204;2022-09-27T08:27:17;19.60;;;11.00;;
50745;SDS011;36711;51.972;21.204;2022-09-27T08:29:45;23.90;;;12.10;;
50745;SDS011;36711;51.972;21.204;2022-09-27T08:32:14;22.30;;;11.70;;
50745;SDS011;36711;51.972;21.204;2022-09-27T08:34:49;18.50;;;10.50;;
50745;SDS011;36711;51.972;21.204;2022-09-27T08:37:16;16.00;;;9.40;;
50745;SDS011;36711;51.972;21.204;2022-09-27T08:39:44;13.40;;;8.60;;
50745;SDS011;36711;51.972;21.204;2022-09-27T08:47:42;13.90;;;9.70;;
50745;SDS011;36711;51.972;21.204;2022-09-27T08:50:20;17.10;;;10.30;;
50745;SDS011;36711;51.972;21.204;2022-09-27T08:53:37;16.70;;;9.20;;
50745;SDS011;36711;51.972;21.204;2022-09-27T08:55:38;14.40;;;9.60;;
50745;SDS011;36711;51.972;21.204;2022-09-27T08:58:27;15.80;;;9.30;;
50745;SDS011;36711;51.972;21.204;2022-09-27T09:00:57;17.70;;;10.40;;
50745;SDS011;36711;51.972;21.204;2022-09-27T09:03:26;18.80;;;10.30;;
50745;SDS011;36711;51.972;21.204;2022-09-27T09:08:29;17.30;;;10.10;;
50745;SDS011;36711;51.972;21.204;2022-09-27T09:24:01;16.70;;;10.20;;
50745;SDS011;36711;51.972;21.204;2022-09-27T09:31:49;18.50;;;10.30;;
50745;SDS011;36711;51.972;21.204;2022-09-27T09:34:28;16.40;;;10.60;;
50745;SDS011;36711;51.972;21.204;2022-09-27T09:39:27;18.70;;;11.50;;
50745;SDS011;36711;51.972;21.204;2022-09-27T09:42:11;20.20;;;10.90;;
50745;SDS011;36711;51.972;21.204;2022-09-27T09:44:54;21.10;;;11.60;;
50745;SDS011;36711;51.972;21.204;2022-09-27T09:47:26;17.60;;;10.10;;
50745;SDS011;36711;51.972;21.204;2022-09-27T09:49:57;19.70;;;11.10;;
50745;SDS011;36711;51.972;21.204;2022-09-27T09:52:28;16.90;;;11.00;;
50745;SDS011;36711;51.972;21.204;2022-09-27T09:55:06;17.80;;;10.50;;
50745;SDS011;36711;51.972;21.204;2022-09-27T09:57:39;16.80;;;10.50;;
50745;SDS011;36711;51.972;21.204;2022-09-27T10:00:13;17.20;;;10.20;;
50745;SDS011;36711;51.972;21.204;2022-09-27T10:02:42;17.20;;;11.00;;
50745;SDS011;36711;51.972;21.204;2022-09-27T10:05:17;17.10;;;11.30;;
50745;SDS011;36711;51.972;21.204;2022-09-27T10:07:45;18.90;;;12.20;;
50745;SDS011;36711;51.972;21.204;2022-09-27T10:10:14;16.60;;;11.50;;
50745;SDS011;36711;51.972;21.204;2022-09-27T10:12:42;18.50;;;11.30;;
50745;SDS011;36711;51.972;21.204;2022-09-27T10:15:23;16.00;;;11.00;;
50745;SDS011;36711;51.972;21.204;2022-09-27T10:17:53;17.10;;;10.90;;
50745;SDS011;36711;51.972;21.204;2022-09-27T10:20:27;17.40;;;11.50;;
50745;SDS011;36711;51.972;21.204;2022-09-27T10:23:10;16.20;;;11.00;;
50745;SDS011;36711;51.972;21.204;2022-09-27T10:28:07;15.60;;;9.60;;
50745;SDS011;36711;51.972;21.204;2022-09-27T10:30:34;11.50;;;9.10;;
50745;SDS011;36711;51.972;21.204;2022-09-27T10:33:15;14.00;;;9.80;;
50745;SDS011;36711;51.972;21.204;2022-09-27T10:35:46;11.80;;;8.70;;
50745;SDS011;36711;51.972;21.204;2022-09-27T10:38:21;11.80;;;8.40;;
50745;SDS011;36711;51.972;21.204;2022-09-27T10:40:51;10.90;;;8.60;;
50745;SDS011;36711;51.972;21.204;2022-09-27T10:43:26;11.10;;;8.40;;
50745;SDS011;36711;51.972;21.204;2022-09-27T10:48:30;11.50;;;8.90;;
50745;SDS011;36711;51.972;21.204;2022-09-27T10:50:58;11.00;;;8.00;;
50745;SDS011;36711;51.972;21.204;2022-09-27T10:53:27;9.50;;;7.70;;
50745;SDS011;36711;51.972;21.204;2022-09-27T10:55:56;9.40;;;7.60;;
50745;SDS011;36711;51.972;21.204;2022-09-27T10:58:25;10.20;;;7.90;;
50745;SDS011;36711;51.972;21.204;2022-09-27T11:00:58;10.60;;;7.70;;
50745;SDS011;36711;51.972;21.204;2022-09-27T11:03:28;8.80;;;7.00;;
50745;SDS011;36711;51.972;21.204;2022-09-27T11:05:57;9.60;;;8.00;;
50745;SDS011;36711;51.972;21.204;2022-09-27T11:08:30;7.80;;;6.90;;
50745;SDS011;36711;51.972;21.204;2022-09-27T11:11:04;9.10;;;7.60;;
50745;SDS011;36711;51.972;21.204;2022-09-27T11:13:33;11.40;;;8.00;;
50745;SDS011;36711;51.972;21.204;2022-09-27T11:16:05;14.00;;;8.30;;
50745;SDS011;36711;51.972;21.204;2022-09-27T11:18:41;8.50;;;7.10;;
50745;SDS011;36711;51.972;21.204;2022-09-27T11:36:36;8.20;;;7.30;;
50745;SDS011;36711;51.972;21.204;2022-09-27T11:44:17;7.20;;;6.20;;
50745;SDS011;36711;51.972;21.204;2022-09-27T11:57:30;9.60;;;6.50;;
50745;SDS011;36711;51.972;21.204;2022-09-27T12:10:28;7.30;;;6.20;;
50745;SDS011;36711;51.972;21.204;2022-09-27T12:12:56;9.10;;;5.90;;
50745;SDS011;36711;51.972;21.204;2022-09-27T12:15:28;7.50;;;5.70;;
50745;SDS011;36711;51.972;21.204;2022-09-27T12:18:59;8.00;;;5.50;;
50745;SDS011;36711;51.972;21.204;2022-09-27T12:20:55;12.00;;;6.70;;
50745;SDS011;36711;51.972;21.204;2022-09-27T12:26:08;8.20;;;5.60;;
50745;SDS011;36711;51.972;21.204;2022-09-27T12:28:43;6.70;;;6.10;;
50745;SDS011;36711;51.972;21.204;2022-09-27T12:36:30;6.50;;;5.80;;
50745;SDS011;36711;51.972;21.204;2022-09-27T12:41:56;6.00;;;5.40;;
50745;SDS011;36711;51.972;21.204;2022-09-27T12:44:30;6.60;;;5.50;;
50745;SDS011;36711;51.972;21.204;2022-09-27T12:47:03;8.80;;;5.50;;
50745;SDS011;36711;51.972;21.204;2022-09-27T12:49:40;6.50;;;4.80;;
50745;SDS011;36711;51.972;21.204;2022-09-27T12:52:09;4.80;;;4.40;;
50745;SDS011;36711;51.972;21.204;2022-09-27T12:59:52;5.90;;;4.80;;
50745;SDS011;36711;51.972;21.204;2022-09-27T13:13:00;4.60;;;4.10;;
50745;SDS011;36711;51.972;21.204;2022-09-27T13:15:29;3.80;;;3.50;;
50745;SDS011;36711;51.972;21.204;2022-09-27T13:17:58;4.00;;;3.60;;
50745;SDS011;36711;51.972;21.204;2022-09-27T13:23:02;4.60;;;4.00;;
50745;SDS011;36711;51.972;21.204;2022-09-27T13:28:35;3.90;;;3.60;;
50745;SDS011;36711;51.972;21.204;2022-09-27T13:45:51;5.50;;;3.80;;
50745;SDS011;36711;51.972;21.204;2022-09-27T13:48:23;3.80;;;3.40;;
50745;SDS011;36711;51.972;21.204;2022-09-27T13:51:15;5.20;;;4.10;;
50745;SDS011;36711;51.972;21.204;2022-09-27T13:53:54;5.40;;;4.20;;
50745;SDS011;36711;51.972;21.204;2022-09-27T13:57:37;5.90;;;4.00;;
50745;SDS011;36711;51.972;21.204;2022-09-27T14:01:54;8.10;;;4.10;;
50745;SDS011;36711;51.972;21.204;2022-09-27T14:04:23;4.30;;;3.90;;
50745;SDS011;36711;51.972;21.204;2022-09-27T14:06:54;4.90;;;4.20;;
50745;SDS011;36711;51.972;21.204;2022-09-27T14:09:25;5.50;;;4.10;;
50745;SDS011;36711;51.972;21.204;2022-09-27T14:11:57;5.00;;;4.50;;
50745;SDS011;36711;51.972;21.204;2022-09-27T14:14:26;4.40;;;4.00;;
50745;SDS011;36711;51.972;21.204;2022-09-27T14:16:55;5.20;;;4.30;;
50745;SDS011;36711;51.972;21.204;2022-09-27T14:19:25;6.30;;;4.60;;
50745;SDS011;36711;51.972;21.204;2022-09-27T14:21:53;5.00;;;4.50;;
50745;SDS011;36711;51.972;21.204;2022-09-27T14:24:31;5.80;;;4.80;;
50745;SDS011;36711;51.972;21.204;2022-09-27T14:27:09;5.90;;;5.10;;
50745;SDS011;36711;51.972;21.204;2022-09-27T14:29:39;6.80;;;5.70;;
50745;SDS011;36711;51.972;21.204;2022-09-27T14:32:11;6.60;;;5.30;;
50745;SDS011;36711;51.972;21.204;2022-09-27T14:34:39;6.10;;;4.90;;
50745;SDS011;36711;51.972;21.204;2022-09-27T14:37:21;8.00;;;6.10;;
50745;SDS011;36711;51.972;21.204;2022-09-27T14:39:53;6.20;;;5.60;;
50745;SDS011;36711;51.972;21.204;2022-09-27T14:42:22;7.00;;;5.60;;
50745;SDS011;36711;51.972;21.204;2022-09-27T14:44:51;7.80;;;6.20;;
50745;SDS011;36711;51.972;21.204;2022-09-27T14:47:23;8.60;;;6.30;;
50745;SDS011;36711;51.972;21.204;2022-09-27T14:49:56;12.60;;;6.70;;
50745;SDS011;36711;51.972;21.204;2022-09-27T14:54:55;9.50;;;6.80;;
50745;SDS011;36711;51.972;21.204;2022-09-27T14:57:25;8.90;;;6.30;;
50745;SDS011;36711;51.972;21.204;2022-09-27T14:59:53;9.70;;;7.50;;
50745;SDS011;36711;51.972;21.204;2022-09-27T15:02:21;8.80;;;7.50;;
50745;SDS011;36711;51.972;21.204;2022-09-27T15:04:51;10.80;;;6.50;;
50745;SDS011;36711;51.972;21.204;2022-09-27T15:07:20;11.40;;;7.80;;
50745;SDS011;36711;51.972;21.204;2022-09-27T15:09:48;8.70;;;6.90;;
50745;SDS011;36711;51.972;21.204;2022-09-27T15:12:21;11.10;;;7.80;;
50745;SDS011;36711;51.972;21.204;2022-09-27T15:14:51;9.20;;;7.40;;
50745;SDS011;36711;51.972;21.204;2022-09-27T15:17:20;9.10;;;7.60;;
50745;SDS011;36711;51.972;21.204;2022-09-27T15:19:55;9.50;;;7.20;;
50745;SDS011;36711;51.972;21.204;2022-09-27T15:22:40;9.80;;;6.90;;
50745;SDS011;36711;51.972;21.204;2022-09-27T15:27:52;11.40;;;6.60;;
50745;SDS011;36711;51.972;21.204;2022-09-27T15:30:28;8.70;;;6.80;;
50745;SDS011;36711;51.972;21.204;2022-09-27T15:32:59;10.70;;;6.60;;
50745;SDS011;36711;51.972;21.204;2022-09-27T15:35:29;7.90;;;6.20;;
50745;SDS011;36711;51.972;21.204;2022-09-27T15:38:10;11.30;;;7.50;;
50745;SDS011;36711;51.972;21.204;2022-09-27T15:40:55;9.00;;;6.60;;
50745;SDS011;36711;51.972;21.204;2022-09-27T15:43:32;9.30;;;5.90;;
50745;SDS011;36711;51.972;21.204;2022-09-27T15:46:01;8.90;;;5.60;;
50745;SDS011;36711;51.972;21.204;2022-09-27T15:48:30;8.50;;;6.60;;
50745;SDS011;36711;51.972;21.204;2022-09-27T15:50:59;7.30;;;6.50;;
50745;SDS011;36711;51.972;21.204;2022-09-27T15:56:00;8.60;;;6.60;;
50745;SDS011;36711;51.972;21.204;2022-09-27T15:58:29;9.00;;;6.50;;
50745;SDS011;36711;51.972;21.204;2022-09-27T16:00:58;8.80;;;6.20;;
50745;SDS011;36711;51.972;21.204;2022-09-27T16:03:28;7.60;;;5.90;;
50745;SDS011;36711;51.972;21.204;2022-09-27T16:05:57;8.30;;;5.80;;
50745;SDS011;36711;51.972;21.204;2022-09-27T16:08:25;8.20;;;6.40;;
50745;SDS011;36711;51.972;21.204;2022-09-27T16:10:53;9.80;;;6.10;;
50745;SDS011;36711;51.972;21.204;2022-09-27T16:13:22;9.30;;;6.70;;
50745;SDS011;36711;51.972;21.204;2022-09-27T16:15:49;9.50;;;6.40;;
50745;SDS011;36711;51.972;21.204;2022-09-27T16:18:18;7.90;;;6.10;;
50745;SDS011;36711;51.972;21.204;2022-09-27T16:20:45;8.00;;;5.80;;
50745;SDS011;36711;51.972;21.204;2022-09-27T16:23:13;6.70;;;5.10;;
50745;SDS011;36711;51.972;21.204;2022-09-27T16:25:40;9.00;;;5.10;;
50745;SDS011;36711;51.972;21.204;2022-09-27T16:28:08;9.50;;;5.70;;
50745;SDS011;36711;51.972;21.204;2022-09-27T16:30:36;9.30;;;6.90;;
50745;SDS011;36711;51.972;21.204;2022-09-27T16:33:04;15.20;;;8.20;;
50745;SDS011;36711;51.972;21.204;2022-09-27T16:35:32;12.40;;;7.90;;
50745;SDS011;36711;51.972;21.204;2022-09-27T16:38:00;11.50;;;7.70;;
50745;SDS011;36711;51.972;21.204;2022-09-27T16:40:27;12.70;;;7.60;;
50745;SDS011;36711;51.972;21.204;2022-09-27T16:42:56;13.00;;;7.60;;
50745;SDS011;36711;51.972;21.204;2022-09-27T16:45:23;19.40;;;8.60;;
50745;SDS011;36711;51.972;21.204;2022-09-27T16:47:59;15.90;;;8.40;;
50745;SDS011;36711;51.972;21.204;2022-09-27T16:50:27;20.00;;;10.00;;
50745;SDS011;36711;51.972;21.204;2022-09-27T16:53:13;18.60;;;9.50;;
50745;SDS011;36711;51.972;21.204;2022-09-27T16:55:41;22.70;;;10.10;;
50745;SDS011;36711;51.972;21.204;2022-09-27T16:58:09;21.70;;;10.60;;
50745;SDS011;36711;51.972;21.204;2022-09-27T17:00:36;22.60;;;10.00;;
50745;SDS011;36711;51.972;21.204;2022-09-27T17:03:05;22.20;;;9.70;;
50745;SDS011;36711;51.972;21.204;2022-09-27T17:05:32;21.20;;;8.80;;
50745;SDS011;36711;51.972;21.204;2022-09-27T17:08:00;20.70;;;10.00;;
50745;SDS011;36711;51.972;21.204;2022-09-27T17:10:28;28.80;;;11.40;;
50745;SDS011;36711;51.972;21.204;2022-09-27T17:12:58;40.50;;;12.60;;
50745;SDS011;36711;51.972;21.204;2022-09-27T17:15:27;36.70;;;13.40;;
50745;SDS011;36711;51.972;21.204;2022-09-27T17:17:55;51.80;;;17.10;;
50745;SDS011;36711;51.972;21.204;2022-09-27T17:20:23;89.20;;;26.30;;
50745;SDS011;36711;51.972;21.204;2022-09-27T17:22:51;102.80;;;30.00;;
50745;SDS011;36711;51.972;21.204;2022-09-27T17:25:18;66.80;;;21.10;;
50745;SDS011;36711;51.972;21.204;2022-09-27T17:27:46;49.30;;;18.60;;
50745;SDS011;36711;51.972;21.204;2022-09-27T17:30:13;57.80;;;19.30;;
50745;SDS011;36711;51.972;21.204;2022-09-27T17:32:41;52.40;;;18.30;;
50745;SDS011;36711;51.972;21.204;2022-09-27T17:35:09;40.40;;;16.30;;